createdAt,value
2024-05-09T14:20:46.012Z,17.04
2024-05-09T14:22:18.268Z,16.99
2024-05-09T14:23:50.462Z,17.03
2024-05-09T14:25:24.325Z,17.02
2024-05-09T14:26:56.095Z,16.96
2024-05-09T14:28:28.224Z,16.99
2024-05-09T14:29:59.950Z,17.00
2024-05-09T14:31:31.902Z,17.04
2024-05-09T14:33:04.019Z,17.06
2024-05-09T14:34:36.118Z,17.05
2024-05-09T14:36:08.007Z,17.04
2024-05-09T14:37:39.919Z,17.03
2024-05-09T14:39:11.899Z,17.05
2024-05-09T14:40:44.415Z,17.03
2024-05-09T14:42:16.599Z,17.05
2024-05-09T14:43:48.850Z,17.04
2024-05-09T14:45:20.812Z,17.02
2024-05-09T14:46:53.040Z,16.99
2024-05-09T14:48:24.850Z,17.01
2024-05-09T14:49:56.641Z,17.02
2024-05-09T14:51:28.381Z,17.01
2024-05-09T14:53:00.190Z,16.99
2024-05-09T14:54:31.982Z,17.02
2024-05-09T14:56:03.784Z,17.02
2024-05-09T14:57:35.555Z,17.07
2024-05-09T14:59:07.706Z,17.09
2024-05-09T15:00:44.851Z,17.11
2024-05-09T15:02:20.325Z,17.17
2024-05-09T15:03:53.840Z,17.22
2024-05-09T15:05:25.758Z,17.30
2024-05-09T15:06:59.442Z,17.41
2024-05-09T15:08:31.385Z,17.56
2024-05-09T15:10:11.588Z,17.62
2024-05-09T15:11:48.714Z,17.69
2024-05-09T15:13:20.983Z,17.81
2024-05-09T15:14:53.082Z,17.86
2024-05-09T15:16:25.532Z,17.92
2024-05-09T15:17:57.575Z,17.99
2024-05-09T15:19:29.547Z,18.05
2024-05-09T15:21:01.583Z,18.07
2024-05-09T15:22:33.479Z,18.08
2024-05-09T15:24:05.620Z,18.09
2024-05-09T15:25:37.371Z,18.09
2024-05-09T15:27:09.150Z,18.08
2024-05-09T15:28:41.265Z,17.94
2024-05-09T15:30:15.447Z,17.84
2024-05-09T15:31:47.435Z,17.70
2024-05-09T15:33:19.554Z,17.61
2024-05-09T15:34:51.385Z,17.54
2024-05-09T15:36:23.097Z,17.51
2024-05-09T15:37:54.924Z,17.52
2024-05-09T15:39:30.984Z,17.59
2024-05-09T15:41:02.960Z,17.64
2024-05-09T15:42:34.817Z,17.67
2024-05-09T15:44:06.679Z,17.71
2024-05-09T15:45:39.088Z,17.77
2024-05-09T15:47:11.451Z,17.81
2024-05-09T15:48:44.860Z,17.82
2024-05-09T15:50:23.491Z,17.83
2024-05-09T15:52:00.877Z,17.81
2024-05-09T15:53:33.027Z,17.76
2024-05-09T15:55:05.188Z,17.72
2024-05-09T15:56:37.335Z,17.68
2024-05-09T15:58:09.425Z,17.68
2024-05-09T15:59:41.174Z,17.66
2024-05-09T16:01:15.120Z,17.66
2024-05-09T16:02:47.069Z,17.65
2024-05-09T16:04:19.289Z,17.62
2024-05-09T16:05:52.141Z,17.64
2024-05-09T16:07:24.908Z,17.69
2024-05-09T16:08:56.692Z,17.72
2024-05-09T16:10:32.692Z,17.74
2024-05-09T16:12:06.279Z,17.75
2024-05-09T16:13:38.180Z,17.76
2024-05-09T16:15:09.925Z,17.80
2024-05-09T16:16:41.808Z,17.84
2024-05-09T16:18:13.733Z,17.86
2024-05-09T16:19:45.504Z,17.86
2024-05-09T16:21:17.293Z,17.82
2024-05-09T16:22:49.017Z,17.78
2024-05-09T16:24:20.776Z,17.77
2024-05-09T16:25:52.666Z,17.73
2024-05-09T16:27:24.396Z,17.67
2024-05-09T16:28:56.296Z,17.63
2024-05-09T16:30:34.210Z,17.61
2024-05-09T16:32:07.575Z,17.61
2024-05-09T16:33:40.563Z,17.63
2024-05-09T16:35:12.553Z,17.66
2024-05-09T16:36:44.330Z,17.68
2024-05-09T16:38:16.245Z,17.69
2024-05-09T16:39:47.944Z,17.69
2024-05-09T16:41:20.007Z,17.66
2024-05-09T16:42:51.782Z,17.59
2024-05-09T16:44:23.647Z,17.55
2024-05-09T16:45:55.794Z,17.52
2024-05-09T16:47:27.794Z,17.46
2024-05-09T16:48:59.734Z,17.41
2024-05-09T16:50:34.252Z,17.40
2024-05-09T16:52:07.332Z,17.40
2024-05-09T16:53:39.324Z,17.36
2024-05-09T16:55:11.155Z,17.33
2024-05-09T16:56:43.013Z,17.29
2024-05-09T16:58:15.000Z,17.31
2024-05-09T16:59:46.782Z,17.32
2024-05-09T17:01:18.852Z,17.24
2024-05-09T17:02:50.968Z,17.20
2024-05-09T17:04:22.750Z,17.16
2024-05-09T17:05:55.006Z,17.09
2024-05-09T17:07:26.859Z,16.99
2024-05-09T17:09:07.909Z,16.96
2024-05-09T17:10:44.565Z,17.00
2024-05-09T17:12:16.341Z,17.03
2024-05-09T17:13:48.438Z,17.03
2024-05-09T17:15:20.704Z,17.00
2024-05-09T17:16:52.462Z,16.96
2024-05-09T17:18:24.339Z,16.90
2024-05-09T17:19:56.097Z,16.88
2024-05-09T17:21:27.836Z,16.84
2024-05-09T17:22:59.585Z,16.85
2024-05-09T17:24:31.324Z,16.84
2024-05-09T17:26:03.111Z,16.80
2024-05-09T17:27:34.926Z,16.79
2024-05-09T17:29:09.242Z,16.77
2024-05-09T17:30:43.152Z,16.69
2024-05-09T17:32:15.052Z,16.51
2024-05-09T17:33:47.072Z,16.44
2024-05-09T17:35:19.797Z,16.47
2024-05-09T17:36:51.583Z,16.50
2024-05-09T17:38:23.984Z,16.50
2024-05-09T17:39:55.784Z,16.46
2024-05-09T17:41:27.764Z,16.47
2024-05-09T17:42:59.686Z,16.47
2024-05-09T17:44:31.878Z,16.47
2024-05-09T17:46:03.711Z,16.48
2024-05-09T17:47:36.170Z,16.45
2024-05-09T17:49:08.084Z,16.44
2024-05-09T17:50:41.205Z,16.40
2024-05-09T17:52:13.810Z,16.28
2024-05-09T17:53:47.955Z,16.17
2024-05-09T17:55:20.023Z,16.09
2024-05-09T17:56:51.822Z,15.99
2024-05-09T17:58:23.665Z,16.01
2024-05-09T17:59:55.976Z,16.01
2024-05-09T18:01:27.883Z,15.98
2024-05-09T18:02:59.783Z,15.97
2024-05-09T18:04:33.464Z,16.02
2024-05-09T18:06:05.812Z,16.01
2024-05-09T18:07:37.929Z,16.00
2024-05-09T18:09:09.957Z,15.98
2024-05-09T18:10:42.496Z,15.92
2024-05-09T18:12:14.799Z,15.88
2024-05-09T18:13:49.698Z,15.86
2024-05-09T18:15:21.755Z,15.86
2024-05-09T18:16:53.732Z,15.85
2024-05-09T18:18:25.788Z,15.84
2024-05-09T18:19:57.810Z,15.82
2024-05-09T18:21:29.984Z,15.80
2024-05-09T18:23:02.032Z,15.80
2024-05-09T18:24:34.125Z,15.81
2024-05-09T18:26:06.109Z,15.77
2024-05-09T18:27:37.984Z,15.76
2024-05-09T18:29:10.987Z,15.74
2024-05-09T18:30:43.408Z,15.68
2024-05-09T18:32:15.387Z,15.65
2024-05-09T18:33:47.931Z,15.65
2024-05-09T18:35:20.281Z,15.65
2024-05-09T18:36:52.300Z,15.66
2024-05-09T18:38:27.119Z,15.67
2024-05-09T18:39:59.203Z,15.65
2024-05-09T18:41:31.939Z,15.62
2024-05-09T18:43:05.210Z,15.59
2024-05-09T18:44:38.341Z,15.57
2024-05-09T18:46:10.261Z,15.53
2024-05-09T18:47:42.257Z,15.49
2024-05-09T18:49:14.363Z,15.39
2024-05-09T18:50:46.386Z,15.26
2024-05-09T18:52:18.388Z,15.18
2024-05-09T18:53:52.572Z,15.08
2024-05-09T18:55:24.460Z,15.07
2024-05-09T18:56:56.432Z,15.06
2024-05-09T18:58:28.442Z,15.05
2024-05-09T19:00:00.598Z,14.96
2024-05-09T19:01:32.792Z,14.89
2024-05-09T19:03:06.230Z,14.85
2024-05-09T19:04:38.632Z,14.83
2024-05-09T19:06:10.610Z,14.85
2024-05-09T19:07:43.586Z,14.89
2024-05-09T19:09:15.856Z,14.95
2024-05-09T19:10:47.620Z,15.02
2024-05-09T19:12:19.492Z,15.06
2024-05-09T19:13:51.459Z,15.11
2024-05-09T19:15:23.250Z,15.16
2024-05-09T19:16:55.232Z,15.19
2024-05-09T19:18:27.729Z,15.19
2024-05-09T19:19:59.746Z,15.21
2024-05-09T19:21:31.782Z,15.19
2024-05-09T19:23:04.325Z,15.19
2024-05-09T19:24:36.365Z,15.21
2024-05-09T19:26:08.755Z,15.20
2024-05-09T19:27:41.608Z,15.18
2024-05-09T19:29:13.602Z,15.17
2024-05-09T19:30:45.813Z,15.13
2024-05-09T19:32:17.793Z,15.11
2024-05-09T19:33:49.914Z,15.09
2024-05-09T19:35:21.852Z,15.13
2024-05-09T19:36:53.587Z,15.17
2024-05-09T19:38:25.472Z,15.18
2024-05-09T19:39:57.586Z,15.19
2024-05-09T19:41:29.694Z,15.17
2024-05-09T19:43:02.846Z,15.17
2024-05-09T19:44:35.938Z,15.17
2024-05-09T19:46:08.057Z,15.15
2024-05-09T19:47:40.135Z,15.12
2024-05-09T19:49:12.766Z,15.14
2024-05-09T19:50:46.191Z,15.13
2024-05-09T19:52:18.202Z,15.12
2024-05-09T19:53:51.255Z,15.07
2024-05-09T19:55:22.999Z,15.02
2024-05-09T19:56:55.058Z,15.03
2024-05-09T19:58:27.053Z,15.04
2024-05-09T19:59:59.096Z,15.05
2024-05-09T20:01:31.090Z,15.05
2024-05-09T20:03:03.109Z,15.02
2024-05-09T20:04:35.267Z,14.98
2024-05-09T20:06:07.086Z,14.98
2024-05-09T20:07:38.989Z,14.96
2024-05-09T20:09:10.863Z,14.95
2024-05-09T20:10:42.931Z,14.96
2024-05-09T20:12:14.811Z,14.97
2024-05-09T20:13:46.609Z,14.99
2024-05-09T20:15:18.454Z,15.01
2024-05-09T20:16:50.412Z,14.99
2024-05-09T20:18:22.289Z,14.97
2024-05-09T20:19:55.028Z,14.95
2024-05-09T20:21:27.052Z,14.93
2024-05-09T20:22:58.772Z,14.89
2024-05-09T20:24:30.561Z,14.88
2024-05-09T20:26:02.335Z,14.90
2024-05-09T20:27:34.241Z,14.92
2024-05-09T20:29:06.773Z,14.92
2024-05-09T20:30:39.169Z,14.90
2024-05-09T20:32:11.048Z,14.84
2024-05-09T20:33:43.757Z,14.80
2024-05-09T20:35:17.199Z,14.77
2024-05-09T20:36:49.340Z,14.74
2024-05-09T20:38:21.708Z,14.69
2024-05-09T20:39:53.660Z,14.62
2024-05-09T20:41:25.540Z,14.57
2024-05-09T20:42:57.362Z,14.52
2024-05-09T20:44:29.370Z,14.46
2024-05-09T20:46:01.500Z,14.45
2024-05-09T20:47:33.432Z,14.45
2024-05-09T20:49:05.509Z,14.44
2024-05-09T20:50:40.845Z,14.43
2024-05-09T20:52:14.403Z,14.41
2024-05-09T20:53:46.382Z,14.39
2024-05-09T20:55:18.328Z,14.35
2024-05-09T20:56:50.216Z,14.33
2024-05-09T20:58:22.376Z,14.33
2024-05-09T20:59:54.756Z,14.33
2024-05-09T21:01:26.987Z,14.32
2024-05-09T21:02:58.977Z,14.33
2024-05-09T21:04:31.196Z,14.31
2024-05-09T21:06:03.393Z,14.28
2024-05-09T21:07:35.289Z,14.26
2024-05-09T21:09:06.956Z,14.29
2024-05-09T21:10:39.058Z,14.32
2024-05-09T21:12:11.509Z,14.31
2024-05-09T21:13:43.514Z,14.31
2024-05-09T21:15:15.208Z,14.28
2024-05-09T21:16:47.101Z,14.20
2024-05-09T21:18:19.120Z,14.17
2024-05-09T21:19:50.939Z,14.10
2024-05-09T21:21:22.805Z,14.09
2024-05-09T21:22:54.748Z,14.12
2024-05-09T21:24:26.690Z,14.15
2024-05-09T21:25:58.433Z,14.16
2024-05-09T21:27:30.198Z,14.14
2024-05-09T21:29:02.793Z,14.13
2024-05-09T21:30:41.424Z,14.14
2024-05-09T21:32:14.890Z,14.15
2024-05-09T21:33:46.923Z,14.13
2024-05-09T21:35:19.147Z,14.14
2024-05-09T21:36:51.295Z,14.12
2024-05-09T21:38:23.070Z,14.11
2024-05-09T21:39:55.689Z,14.10
2024-05-09T21:41:27.426Z,14.09
2024-05-09T21:42:59.853Z,14.09
2024-05-09T21:44:31.731Z,14.08
2024-05-09T21:46:03.569Z,14.08
2024-05-09T21:47:35.678Z,14.07
2024-05-09T21:49:07.875Z,14.04
2024-05-09T21:50:42.089Z,14.01
2024-05-09T21:52:14.478Z,13.96
2024-05-09T21:53:46.788Z,13.95
2024-05-09T21:55:19.658Z,13.93
2024-05-09T21:56:51.765Z,13.97
2024-05-09T21:58:23.820Z,13.99
2024-05-09T21:59:55.591Z,14.04
2024-05-09T22:01:28.243Z,14.05
2024-05-09T22:03:00.328Z,14.05
2024-05-09T22:04:32.308Z,14.06
2024-05-09T22:06:04.099Z,14.02
2024-05-09T22:07:36.551Z,14.00
2024-05-09T22:09:08.323Z,13.94
2024-05-09T22:10:40.279Z,13.90
2024-05-09T22:12:12.346Z,13.93
2024-05-09T22:13:44.782Z,13.93
2024-05-09T22:15:16.681Z,13.92
2024-05-09T22:16:48.432Z,13.88
2024-05-09T22:18:20.259Z,13.88
2024-05-09T22:19:53.212Z,13.91
2024-05-09T22:21:25.403Z,13.94
2024-05-09T22:22:57.461Z,13.94
2024-05-09T22:24:29.170Z,13.93
2024-05-09T22:26:00.890Z,13.92
2024-05-09T22:27:32.910Z,13.90
2024-05-09T22:29:05.209Z,13.85
2024-05-09T22:30:39.488Z,13.79
2024-05-09T22:32:12.267Z,13.70
2024-05-09T22:33:47.652Z,13.61
2024-05-09T22:35:19.989Z,13.56
2024-05-09T22:36:51.752Z,13.54
2024-05-09T22:38:23.506Z,13.50
2024-05-09T22:39:55.621Z,13.47
2024-05-09T22:41:27.717Z,13.44
2024-05-09T22:42:59.541Z,13.42
2024-05-09T22:44:31.455Z,13.46
2024-05-09T22:46:03.881Z,13.53
2024-05-09T22:47:35.876Z,13.59
2024-05-09T22:49:07.839Z,13.65
2024-05-09T22:50:40.646Z,13.69
2024-05-09T22:52:12.613Z,13.71
2024-05-09T22:53:44.561Z,13.72
2024-05-09T22:55:16.364Z,13.72
2024-05-09T22:56:48.158Z,13.70
2024-05-09T22:58:21.091Z,13.65
2024-05-09T22:59:53.097Z,13.64
2024-05-09T23:01:26.703Z,13.63
2024-05-09T23:02:59.359Z,13.58
2024-05-09T23:04:31.719Z,13.53
2024-05-09T23:06:05.842Z,13.49
2024-05-09T23:07:37.627Z,13.46
2024-05-09T23:09:10.723Z,13.45
2024-05-09T23:10:44.062Z,13.43
2024-05-09T23:12:19.120Z,13.40
2024-05-09T23:13:51.181Z,13.39
2024-05-09T23:15:23.733Z,13.42
2024-05-09T23:16:55.660Z,13.44
2024-05-09T23:18:27.532Z,13.49
2024-05-09T23:19:59.275Z,13.51
2024-05-09T23:21:31.028Z,13.52
2024-05-09T23:23:02.994Z,13.51
2024-05-09T23:24:35.532Z,13.48
2024-05-09T23:26:07.628Z,13.43
2024-05-09T23:27:39.789Z,13.45
2024-05-09T23:29:11.708Z,13.45
2024-05-09T23:30:43.696Z,13.47
2024-05-09T23:32:15.495Z,13.49
2024-05-09T23:33:47.483Z,13.47
2024-05-09T23:35:19.518Z,13.43
2024-05-09T23:36:51.633Z,13.42
2024-05-09T23:38:24.949Z,13.43
2024-05-09T23:39:57.028Z,13.39
2024-05-09T23:41:29.178Z,13.34
2024-05-09T23:43:01.059Z,13.34
2024-05-09T23:44:32.963Z,13.37
2024-05-09T23:46:04.979Z,13.38
2024-05-09T23:47:37.157Z,13.36
2024-05-09T23:49:11.346Z,13.27
2024-05-09T23:50:43.094Z,13.20
2024-05-09T23:52:15.380Z,13.08
2024-05-09T23:53:47.429Z,13.03
2024-05-09T23:55:19.504Z,12.97
2024-05-09T23:56:51.376Z,12.96
2024-05-09T23:58:23.187Z,12.94
2024-05-09T23:59:55.283Z,12.96
